createdAt,value
2022-09-05T00:05:51.053Z,17.52
2022-09-05T00:11:56.648Z,17.52
2022-09-05T00:18:24.745Z,17.46
2022-09-05T00:24:30.375Z,17.40
2022-09-05T00:31:07.140Z,17.38
2022-09-05T00:36:43.175Z,17.46
2022-09-05T00:42:22.931Z,17.49
2022-09-05T00:48:13.828Z,17.45
2022-09-05T00:54:26.360Z,17.31
2022-09-05T01:00:22.807Z,17.33
2022-09-05T01:06:17.748Z,17.31
2022-09-05T01:12:19.716Z,17.31
2022-09-05T01:18:44.136Z,17.13
2022-09-05T01:25:04.901Z,17.07
2022-09-05T01:31:03.014Z,17.02
2022-09-05T01:37:07.304Z,17.05
2022-09-05T01:43:30.131Z,17.20
2022-09-05T01:49:33.797Z,17.37
2022-09-05T01:55:32.285Z,17.48
2022-09-05T02:01:33.197Z,17.61
2022-09-05T02:07:30.627Z,17.59
2022-09-05T02:13:21.096Z,17.67
2022-09-05T02:19:09.041Z,17.60
2022-09-05T02:24:58.539Z,17.42
2022-09-05T02:31:23.860Z,17.39
2022-09-05T02:37:32.377Z,17.36
2022-09-05T02:45:12.203Z,17.27
2022-09-05T02:53:45.576Z,17.27
2022-09-05T02:57:38.339Z,17.32
2022-09-05T03:02:25.282Z,17.35
2022-09-05T03:08:41.047Z,17.24
2022-09-05T03:14:55.326Z,17.12
2022-09-05T03:20:37.857Z,17.16
2022-09-05T03:26:23.298Z,17.11
2022-09-05T03:32:14.544Z,17.01
2022-09-05T03:38:36.237Z,16.88
2022-09-05T03:44:34.782Z,16.85
2022-09-05T03:53:45.344Z,16.74
2022-09-05T03:57:32.444Z,16.80
2022-09-05T04:08:20.389Z,16.72
2022-09-05T04:09:50.557Z,16.61
2022-09-05T04:15:47.728Z,16.67
2022-09-05T04:21:36.855Z,16.50
2022-09-05T04:27:28.546Z,16.57
2022-09-05T04:33:35.903Z,16.54
2022-09-05T04:39:19.666Z,16.50
2022-09-05T04:45:03.566Z,16.56
2022-09-05T04:51:21.385Z,16.42
2022-09-05T04:57:14.745Z,16.22
2022-09-05T05:06:14.076Z,15.94
2022-09-05T05:09:15.627Z,15.77
2022-09-05T05:18:13.272Z,15.62
2022-09-05T05:21:09.226Z,15.60
2022-09-05T05:26:57.573Z,15.52
2022-09-05T05:32:45.854Z,15.62
2022-09-05T05:38:38.454Z,15.66
2022-09-05T05:44:35.107Z,15.88
2022-09-05T05:50:43.201Z,15.87
2022-09-05T05:56:56.725Z,15.83
2022-09-05T06:02:39.202Z,15.75
2022-09-05T06:12:53.616Z,15.81
2022-09-05T06:15:16.374Z,15.79
2022-09-05T06:22:10.818Z,15.82
2022-09-05T06:27:43.849Z,15.67
2022-09-05T06:34:33.073Z,15.66
2022-09-05T06:40:18.146Z,15.83
2022-09-05T06:46:03.579Z,15.92
2022-09-05T06:51:46.408Z,15.81
2022-09-05T06:57:35.337Z,15.78
2022-09-05T07:03:33.292Z,15.78
2022-09-05T07:09:28.785Z,15.96
2022-09-05T07:15:40.428Z,16.17
2022-09-05T07:21:35.142Z,16.37
2022-09-05T07:27:49.880Z,16.40
2022-09-05T07:33:39.137Z,16.40
2022-09-05T07:39:29.194Z,16.36
2022-09-05T07:45:29.697Z,16.52
2022-09-05T07:56:47.726Z,16.60
2022-09-05T07:57:43.612Z,16.77
2022-09-05T08:03:31.197Z,16.77
2022-09-05T08:10:08.648Z,16.82
2022-09-05T08:15:27.997Z,16.86
2022-09-05T08:21:42.365Z,17.04
2022-09-05T08:27:26.126Z,17.02
2022-09-05T08:33:11.958Z,17.19
2022-09-05T08:38:52.035Z,17.37
2022-09-05T08:46:42.800Z,17.43
2022-09-05T08:51:04.032Z,17.42
2022-09-05T08:56:55.374Z,17.65
2022-09-05T09:02:57.244Z,17.75
2022-09-05T09:09:05.787Z,17.61
2022-09-05T09:15:00.698Z,17.60
2022-09-05T09:20:54.556Z,17.68
2022-09-05T09:26:50.096Z,17.85
2022-09-05T09:32:30.567Z,18.04
2022-09-05T09:38:29.252Z,18.13
2022-09-05T09:44:50.034Z,18.10
2022-09-05T09:50:41.875Z,18.14
2022-09-05T09:56:40.098Z,18.47
2022-09-05T10:06:52.502Z,18.72
2022-09-05T10:10:58.388Z,18.93
2022-09-05T10:15:38.177Z,19.07
2022-09-05T10:28:14.817Z,19.58
2022-09-05T10:35:13.751Z,19.73
2022-09-05T10:40:04.466Z,20.00
2022-09-05T10:46:06.053Z,20.28
2022-09-05T10:51:52.502Z,20.41
2022-09-05T10:57:40.873Z,20.39
2022-09-05T11:03:30.213Z,20.62
2022-09-05T11:09:16.463Z,20.61
2022-09-05T11:14:58.741Z,20.75
2022-09-05T11:20:53.139Z,20.67
2022-09-05T11:26:42.430Z,20.65
2022-09-05T11:39:14.826Z,20.61
2022-09-05T11:39:59.172Z,20.62
2022-09-05T11:45:34.280Z,20.81
2022-09-05T11:51:43.022Z,21.01
2022-09-05T11:57:33.449Z,21.23
2022-09-05T12:03:57.222Z,21.47
2022-09-05T12:09:34.294Z,21.75
2022-09-05T12:15:34.446Z,21.82
2022-09-05T12:21:22.971Z,21.81
2022-09-05T12:27:40.234Z,21.82
2022-09-05T12:36:01.618Z,21.73
2022-09-05T12:40:56.665Z,21.80
2022-09-05T12:45:37.309Z,21.77
2022-09-05T12:51:45.351Z,21.90
2022-09-05T13:02:41.854Z,21.96
2022-09-05T13:03:37.833Z,21.87
2022-09-05T13:09:51.910Z,21.98
2022-09-05T13:15:41.894Z,21.96
2022-09-05T13:21:27.180Z,22.05
2022-09-05T13:27:17.275Z,22.16
2022-09-05T13:38:04.621Z,22.16
2022-09-05T13:39:12.483Z,22.08
2022-09-05T13:44:56.503Z,22.10
2022-09-05T13:50:42.760Z,22.22
2022-09-05T13:56:29.124Z,22.44
2022-09-05T14:02:27.822Z,22.55
2022-09-05T14:08:33.651Z,22.66
2022-09-05T14:21:17.092Z,22.57
2022-09-05T14:27:00.388Z,22.46
2022-09-05T14:37:36.374Z,22.30
2022-09-05T14:38:22.009Z,22.29
2022-09-05T14:44:01.566Z,22.38
2022-09-05T14:49:40.095Z,22.45
2022-09-05T15:02:53.353Z,22.53
2022-09-05T15:06:40.588Z,22.53
2022-09-05T15:12:33.030Z,22.51
2022-09-05T15:18:12.273Z,22.45
2022-09-05T15:23:35.349Z,22.44
2022-09-05T15:29:13.916Z,22.39
2022-09-05T15:34:34.990Z,22.30
2022-09-05T15:40:23.191Z,22.25
2022-09-05T15:45:46.998Z,22.20
2022-09-05T15:51:18.491Z,22.19
2022-09-05T15:56:48.836Z,22.20
2022-09-05T16:02:23.312Z,22.17
2022-09-05T16:10:35.756Z,22.11
2022-09-05T16:13:33.915Z,21.98
2022-09-05T16:23:20.551Z,21.98
2022-09-05T16:25:03.744Z,21.95
2022-09-05T16:30:30.178Z,21.87
2022-09-05T16:36:16.537Z,21.80
2022-09-05T16:41:54.005Z,21.72
2022-09-05T16:47:37.525Z,21.64
2022-09-05T16:53:26.071Z,21.59
2022-09-05T16:58:56.538Z,21.58
2022-09-05T17:04:41.775Z,21.55
2022-09-05T17:10:21.405Z,21.51
2022-09-05T17:15:52.330Z,21.55
2022-09-05T17:21:36.565Z,21.54
2022-09-05T17:29:34.134Z,21.57
2022-09-05T17:32:59.842Z,21.45
2022-09-05T17:38:58.592Z,21.38
2022-09-05T17:44:29.497Z,21.25
2022-09-05T17:50:10.165Z,21.17
2022-09-05T17:55:43.278Z,20.94
2022-09-05T18:01:27.066Z,20.90
2022-09-05T18:06:59.868Z,20.90
2022-09-05T18:13:11.798Z,20.90
2022-09-05T18:19:27.961Z,20.84
2022-09-05T18:24:33.414Z,20.86
2022-09-05T18:30:25.098Z,20.76
2022-09-05T18:35:53.734Z,20.63
2022-09-05T18:41:19.318Z,20.53
2022-09-05T18:47:32.133Z,20.48
2022-09-05T18:53:09.106Z,20.36
2022-09-05T18:58:36.696Z,20.25
2022-09-05T19:04:02.043Z,20.13
2022-09-05T19:09:32.109Z,20.06
2022-09-05T19:15:01.415Z,20.05
2022-09-05T19:21:04.521Z,19.97
2022-09-05T19:26:28.959Z,19.86
2022-09-05T19:37:14.798Z,19.85
2022-09-05T19:37:48.754Z,19.78
2022-09-05T19:47:42.044Z,19.57
2022-09-05T19:49:12.074Z,19.33
2022-09-05T19:54:38.174Z,19.34
2022-09-05T20:00:02.956Z,19.41
2022-09-05T20:05:39.205Z,19.34
2022-09-05T20:11:02.044Z,19.29
2022-09-05T20:16:31.111Z,19.19
2022-09-05T20:21:56.785Z,19.07
2022-09-05T20:27:18.253Z,19.06
2022-09-05T20:32:42.395Z,18.99
2022-09-05T20:43:19.345Z,19.02
2022-09-05T20:44:01.515Z,19.00
2022-09-05T20:54:06.986Z,18.96
2022-09-05T20:55:40.160Z,18.96
2022-09-05T21:01:21.790Z,18.97
2022-09-05T21:06:44.522Z,18.93
2022-09-05T21:12:09.183Z,18.82
2022-09-05T21:17:41.545Z,18.68
2022-09-05T21:23:20.238Z,18.47
2022-09-05T21:29:08.137Z,18.37
2022-09-05T21:34:33.134Z,18.32
2022-09-05T21:40:00.229Z,18.36
2022-09-05T21:47:38.025Z,18.33
2022-09-05T21:51:13.034Z,18.47
2022-09-05T21:59:30.624Z,18.60
2022-09-05T22:02:21.781Z,18.53
2022-09-05T22:07:43.338Z,18.56
2022-09-05T22:13:05.107Z,18.36
2022-09-05T22:18:25.709Z,18.34
2022-09-05T22:23:53.658Z,18.21
2022-09-05T22:29:17.979Z,18.23
2022-09-05T22:34:38.862Z,18.24
2022-09-05T22:39:59.765Z,18.26
2022-09-05T22:45:20.541Z,18.26
2022-09-05T22:50:42.613Z,18.16
2022-09-05T22:56:07.098Z,18.19
2022-09-05T23:01:27.949Z,18.20
2022-09-05T23:06:48.664Z,18.18
2022-09-05T23:12:09.320Z,18.07
2022-09-05T23:17:29.925Z,17.94
2022-09-05T23:22:50.434Z,17.81
2022-09-05T23:28:11.467Z,17.67
2022-09-05T23:33:33.287Z,17.63
2022-09-05T23:38:54.474Z,17.60
2022-09-05T23:44:15.257Z,17.56
2022-09-05T23:49:35.748Z,17.56
2022-09-05T23:54:56.776Z,17.58
